Updated19/11/2018 23:40 
 

GeoURL
free counters
Scottish Weather Network UK Weather Network Cumulus Top Weather Sites

Peebles Weather - Charts

Raw Data, Raw Data Expanded

Ignore low humidity and Dew Point values. Something wrong with the sensor.
Daytime temperatures are in direct sunlight so may be higher than official air temperature values.
As with any other website, we log your IP address and browser type in the server logs for diagnostic reasons. Cookies are used to record visit time and gauges preferences. No personal information is stored or processed.

All times are in BST (UTC+1) unless specified.

2018/11/19 23:20 EGPH 192320Z 08010KT 9999 -RA FEW013 BKN021 BKN034 06/04 Q1027
5.0°C 0.0 mm 0.3 mm 0.3 mm 6.1 mph 9.8 mph 1021.8 hPa 78% X-Ray Solar Flare Level
Planetary K-Index
Planetary K-Index History
Station Warn Rain Snow Flood Wind Ltng Heat Cold Glob Moon Temp Rain 1h Rain Mon Rain 24h Wind 10m Gust Pressure Hum Proton Levels

0.488 m Waxing Gibbous Cold F2-NE F: A: Kp:0 SSN:0

Charts

 

XHTML 1.1 | CSS